createdAt,value
2022-09-07T00:02:58.358Z,11.71
2022-09-07T00:06:25.617Z,11.68
2022-09-07T00:09:52.928Z,11.64
2022-09-07T00:13:20.141Z,11.60
2022-09-07T00:16:47.270Z,11.54
2022-09-07T00:20:15.356Z,11.50
2022-09-07T00:23:42.682Z,11.45
2022-09-07T00:27:11.585Z,11.40
2022-09-07T00:30:44.018Z,11.35
2022-09-07T00:34:10.967Z,11.31
2022-09-07T00:37:37.967Z,11.30
2022-09-07T00:41:06.043Z,11.27
2022-09-07T00:45:10.268Z,11.23
2022-09-07T00:48:40.719Z,11.22
2022-09-07T00:52:10.887Z,11.20
2022-09-07T00:55:40.037Z,11.18
2022-09-07T00:59:08.008Z,11.15
2022-09-07T01:02:35.582Z,11.12
2022-09-07T01:06:07.130Z,11.10
2022-09-07T01:09:34.091Z,11.07
2022-09-07T01:13:01.252Z,11.01
2022-09-07T01:16:44.008Z,10.95
2022-09-07T01:20:41.636Z,10.88
2022-09-07T01:24:50.328Z,10.82
2022-09-07T01:28:22.030Z,10.77
2022-09-07T01:31:58.951Z,10.70
2022-09-07T01:35:33.245Z,10.65
2022-09-07T01:39:03.894Z,10.58
2022-09-07T01:42:36.381Z,10.49
2022-09-07T01:46:07.238Z,10.43
2022-09-07T01:49:41.633Z,10.36
2022-09-07T01:53:18.311Z,10.29
2022-09-07T01:56:48.458Z,10.21
2022-09-07T02:00:20.572Z,10.15
2022-09-07T02:04:00.827Z,10.07
2022-09-07T02:07:36.430Z,10.01
2022-09-07T02:11:07.073Z,9.96
2022-09-07T02:14:39.456Z,9.90
2022-09-07T02:18:09.486Z,9.84
2022-09-07T02:21:42.700Z,9.76
2022-09-07T02:25:15.573Z,9.68
2022-09-07T02:28:42.834Z,9.62
2022-09-07T02:32:09.985Z,9.57
2022-09-07T02:35:37.448Z,9.53
2022-09-07T02:39:04.405Z,9.48
2022-09-07T02:42:33.731Z,9.46
2022-09-07T02:46:17.299Z,9.46
2022-09-07T02:50:13.080Z,9.46
2022-09-07T02:54:01.810Z,9.45
2022-09-07T02:57:36.212Z,9.48
2022-09-07T03:01:10.251Z,9.51
2022-09-07T03:04:47.804Z,9.54
2022-09-07T03:08:17.968Z,9.56
2022-09-07T03:11:44.820Z,9.56
2022-09-07T03:15:14.550Z,9.52
2022-09-07T03:18:41.404Z,9.48
2022-09-07T03:22:08.661Z,9.45
2022-09-07T03:25:35.701Z,9.40
2022-09-07T03:29:02.890Z,9.33
2022-09-07T03:32:33.464Z,9.27
2022-09-07T03:36:04.777Z,9.22
2022-09-07T03:39:32.179Z,9.17
2022-09-07T03:42:59.021Z,9.11
2022-09-07T03:46:26.188Z,9.05
2022-09-07T03:49:53.095Z,9.00
2022-09-07T03:53:19.981Z,8.96
2022-09-07T03:56:46.805Z,8.89
2022-09-07T04:00:16.383Z,8.82
2022-09-07T04:03:43.913Z,8.76
2022-09-07T04:07:11.205Z,8.75
2022-09-07T04:10:43.077Z,8.75
2022-09-07T04:14:10.164Z,8.76
2022-09-07T04:17:37.929Z,8.79
2022-09-07T04:21:05.063Z,8.82
2022-09-07T04:24:32.622Z,8.86
2022-09-07T04:28:00.397Z,8.90
2022-09-07T04:31:27.659Z,8.94
2022-09-07T04:34:55.084Z,8.95
2022-09-07T04:38:21.857Z,8.94
2022-09-07T04:41:48.646Z,8.94
2022-09-07T04:45:16.942Z,8.94
2022-09-07T04:48:50.695Z,8.93
2022-09-07T04:52:16.093Z,8.94
2022-09-07T04:55:43.049Z,8.92
2022-09-07T04:59:10.337Z,8.92
2022-09-07T05:02:38.217Z,8.92
2022-09-07T05:06:06.260Z,8.93
2022-09-07T05:09:33.441Z,8.96
2022-09-07T05:13:00.853Z,8.97
2022-09-07T05:16:28.938Z,8.98
2022-09-07T05:19:56.338Z,9.01
2022-09-07T05:23:24.721Z,9.08
2022-09-07T05:26:51.664Z,9.16
2022-09-07T05:37:54.203Z,9.57
2022-09-07T05:41:22.399Z,9.74
2022-09-07T05:44:49.767Z,9.89
2022-09-07T05:48:17.578Z,10.04
2022-09-07T05:51:44.882Z,10.18
2022-09-07T05:55:28.805Z,10.29
2022-09-07T05:58:57.787Z,10.41
2022-09-07T06:02:25.099Z,10.50
2022-09-07T06:06:00.265Z,10.60
2022-09-07T06:09:30.668Z,10.68
2022-09-07T06:13:00.307Z,10.78
2022-09-07T06:16:29.276Z,10.86
2022-09-07T06:19:59.976Z,10.94
2022-09-07T06:23:27.892Z,11.03
2022-09-07T06:26:55.268Z,11.11
2022-09-07T06:30:25.703Z,11.18
2022-09-07T06:33:53.665Z,11.26
2022-09-07T06:37:20.522Z,11.35
2022-09-07T06:40:48.250Z,11.45
2022-09-07T06:44:15.345Z,11.54
2022-09-07T06:47:43.278Z,11.63
2022-09-07T06:51:15.363Z,11.73
2022-09-07T06:54:58.828Z,11.84
2022-09-07T06:58:26.665Z,11.96
2022-09-07T07:01:55.304Z,12.07
2022-09-07T07:05:22.622Z,12.18
2022-09-07T07:08:49.532Z,12.31
2022-09-07T07:15:42.012Z,12.58
2022-09-07T07:19:08.853Z,12.71
2022-09-07T07:22:52.246Z,12.85
2022-09-07T07:26:22.483Z,12.98
2022-09-07T07:29:50.259Z,13.11
2022-09-07T07:33:17.468Z,13.25
2022-09-07T07:36:44.853Z,13.41
2022-09-07T07:40:16.745Z,13.56
2022-09-07T07:43:46.606Z,13.72
2022-09-07T07:47:16.327Z,13.86
2022-09-07T07:50:44.813Z,14.00
2022-09-07T07:54:14.772Z,14.14
2022-09-07T07:57:42.599Z,14.29
2022-09-07T08:01:12.246Z,14.43
2022-09-07T08:04:38.982Z,14.59
2022-09-07T08:08:06.291Z,14.74
2022-09-07T08:11:35.320Z,14.91
2022-09-07T08:15:03.868Z,15.08
2022-09-07T08:18:31.352Z,15.23
2022-09-07T08:21:58.285Z,15.38
2022-09-07T08:25:25.698Z,15.52
2022-09-07T08:28:52.842Z,15.64
2022-09-07T08:32:19.849Z,15.77
2022-09-07T08:35:55.023Z,15.91
2022-09-07T08:39:23.546Z,16.07
2022-09-07T08:43:01.704Z,16.21
2022-09-07T08:46:35.487Z,16.36
2022-09-07T08:50:08.377Z,16.52
2022-09-07T08:53:37.887Z,16.67
2022-09-07T08:57:21.877Z,16.81
2022-09-07T09:00:47.035Z,16.97
2022-09-07T09:04:23.290Z,17.12
2022-09-07T09:08:03.782Z,17.26
2022-09-07T09:11:45.320Z,17.39
2022-09-07T09:15:23.292Z,17.57
2022-09-07T09:19:20.749Z,17.74
2022-09-07T09:22:53.743Z,17.90
2022-09-07T09:26:25.548Z,18.01
2022-09-07T09:29:52.400Z,18.10
2022-09-07T09:33:23.559Z,18.25
2022-09-07T09:36:53.310Z,18.38
2022-09-07T09:40:29.369Z,18.51
2022-09-07T09:44:02.801Z,18.65
2022-09-07T09:47:34.188Z,18.75
2022-09-07T09:55:03.404Z,19.08
2022-09-07T10:06:21.313Z,19.40
2022-09-07T10:09:53.945Z,19.58
2022-09-07T10:13:25.709Z,19.77
2022-09-07T10:16:53.119Z,19.95
2022-09-07T10:20:35.199Z,20.10
2022-09-07T10:24:15.199Z,20.19
2022-09-07T10:27:42.150Z,20.29
2022-09-07T10:31:17.893Z,20.40
2022-09-07T10:34:58.479Z,20.49
2022-09-07T10:38:26.370Z,20.63
2022-09-07T10:42:01.000Z,20.78
2022-09-07T10:45:37.925Z,20.93
2022-09-07T10:49:20.325Z,21.07
2022-09-07T10:52:52.984Z,21.14
2022-09-07T10:56:23.862Z,21.20
2022-09-07T11:00:11.704Z,21.23
2022-09-07T11:03:58.616Z,21.39
2022-09-07T11:07:39.762Z,21.52
2022-09-07T11:11:15.734Z,21.57
2022-09-07T11:14:49.717Z,21.57
2022-09-07T11:18:22.110Z,21.58
2022-09-07T11:22:02.537Z,21.67
2022-09-07T11:25:35.639Z,21.67
2022-09-07T11:33:05.126Z,21.66
2022-09-07T11:36:37.765Z,21.75
2022-09-07T11:40:16.112Z,21.93
2022-09-07T11:43:47.113Z,22.09
2022-09-07T11:47:22.634Z,22.25
2022-09-07T11:50:54.566Z,22.48
2022-09-07T11:54:40.873Z,22.71
2022-09-07T11:58:34.085Z,22.95
2022-09-07T12:02:17.680Z,23.14
2022-09-07T12:06:16.913Z,23.05
2022-09-07T12:10:10.202Z,22.90
2022-09-07T12:14:12.135Z,22.66
2022-09-07T12:17:54.595Z,22.41
2022-09-07T12:21:39.470Z,22.26
2022-09-07T12:25:19.843Z,22.18
2022-09-07T12:29:30.252Z,22.15
2022-09-07T12:33:28.762Z,22.20
2022-09-07T12:37:06.044Z,22.39
2022-09-07T12:41:02.521Z,22.69
2022-09-07T12:44:31.247Z,23.11
2022-09-07T12:48:06.125Z,23.41
2022-09-07T13:00:05.391Z,24.08
2022-09-07T13:04:20.463Z,24.45
2022-09-07T13:08:09.329Z,24.86
2022-09-07T13:11:40.231Z,25.19
2022-09-07T13:15:14.612Z,25.46
2022-09-07T13:18:47.853Z,25.66
2022-09-07T13:22:44.128Z,25.90
2022-09-07T13:26:36.690Z,26.22
2022-09-07T13:30:21.268Z,26.33
2022-09-07T13:33:53.034Z,26.34
2022-09-07T13:37:24.438Z,26.43
2022-09-07T13:40:54.261Z,26.43
2022-09-07T13:44:26.955Z,26.49
2022-09-07T13:48:05.413Z,26.60
2022-09-07T13:51:39.698Z,26.73
2022-09-07T13:55:25.865Z,26.93
2022-09-07T13:58:55.400Z,27.05
2022-09-07T14:02:30.786Z,27.08
2022-09-07T14:06:31.951Z,27.04
2022-09-07T14:10:19.782Z,27.09
2022-09-07T14:13:54.614Z,27.10
2022-09-07T14:17:22.503Z,27.12
2022-09-07T14:20:52.447Z,27.15
2022-09-07T14:24:29.838Z,27.14
2022-09-07T14:28:05.030Z,27.00
2022-09-07T14:31:30.958Z,26.88
2022-09-07T14:34:58.458Z,26.78
2022-09-07T14:42:23.136Z,26.45
2022-09-07T14:45:51.097Z,26.14
2022-09-07T14:49:25.985Z,25.81
2022-09-07T14:57:01.409Z,25.15
2022-09-07T15:00:34.292Z,24.82
2022-09-07T15:04:03.594Z,24.62
2022-09-07T15:07:42.787Z,24.39
2022-09-07T15:15:10.560Z,23.92
2022-09-07T15:19:01.246Z,23.72
2022-09-07T15:22:28.096Z,23.47
2022-09-07T15:25:55.165Z,23.28
2022-09-07T15:29:24.159Z,23.08
2022-09-07T15:32:52.716Z,22.89
2022-09-07T15:36:20.446Z,22.75
2022-09-07T15:39:47.717Z,22.60
2022-09-07T15:43:20.644Z,22.44
2022-09-07T15:50:39.041Z,22.14
2022-09-07T15:54:13.435Z,22.05
2022-09-07T15:57:51.250Z,21.95
2022-09-07T16:05:14.019Z,21.75
2022-09-07T16:08:41.669Z,21.65
2022-09-07T16:16:10.197Z,21.42
2022-09-07T16:19:41.909Z,21.33
2022-09-07T16:23:16.445Z,21.25
2022-09-07T16:26:46.466Z,21.17
2022-09-07T16:30:14.697Z,21.06
2022-09-07T16:33:41.649Z,20.97
2022-09-07T16:37:11.257Z,20.87
2022-09-07T16:40:42.026Z,20.77
2022-09-07T16:44:08.547Z,20.67
2022-09-07T16:47:35.339Z,20.56
2022-09-07T16:51:03.023Z,20.44
2022-09-07T16:54:29.822Z,20.33
2022-09-07T17:01:43.381Z,20.08
2022-09-07T17:05:14.208Z,19.93
2022-09-07T17:08:45.467Z,19.80
2022-09-07T17:12:13.736Z,19.65
2022-09-07T17:15:40.511Z,19.53
2022-09-07T17:24:54.805Z,19.14
2022-09-07T17:28:22.209Z,18.99
2022-09-07T17:32:30.194Z,18.84
2022-09-07T17:36:05.945Z,18.66
2022-09-07T17:39:33.078Z,18.50
2022-09-07T17:46:48.167Z,18.25
2022-09-07T17:50:15.160Z,18.13
2022-09-07T17:53:45.587Z,18.04
2022-09-07T17:57:12.645Z,17.92
2022-09-07T18:00:52.801Z,17.80
2022-09-07T18:04:19.615Z,17.69
2022-09-07T18:07:48.767Z,17.59
2022-09-07T18:15:07.196Z,17.38
2022-09-07T18:18:35.865Z,17.29
2022-09-07T18:22:06.684Z,17.22
2022-09-07T18:25:33.755Z,17.14
2022-09-07T18:29:03.819Z,17.08
2022-09-07T18:32:33.800Z,17.01
2022-09-07T18:36:00.694Z,16.93
2022-09-07T18:39:28.299Z,16.84
2022-09-07T18:42:57.673Z,16.74
2022-09-07T18:46:26.534Z,16.64
2022-09-07T18:49:54.873Z,16.54
2022-09-07T18:53:22.603Z,16.45
2022-09-07T18:56:49.579Z,16.35
2022-09-07T19:00:17.956Z,16.27
2022-09-07T19:03:46.020Z,16.20
2022-09-07T19:07:29.418Z,16.14
2022-09-07T19:10:58.185Z,16.09
2022-09-07T19:14:27.941Z,16.02
2022-09-07T19:17:55.451Z,15.97
2022-09-07T19:21:24.543Z,15.92
2022-09-07T19:24:57.593Z,15.87
2022-09-07T19:28:27.179Z,15.83
2022-09-07T19:32:07.938Z,15.78
2022-09-07T19:35:39.516Z,15.73
2022-09-07T19:39:06.986Z,15.68
2022-09-07T19:42:34.008Z,15.64
2022-09-07T19:46:01.068Z,15.60
2022-09-07T19:49:28.467Z,15.55
2022-09-07T19:52:56.337Z,15.49
2022-09-07T19:56:23.024Z,15.43
2022-09-07T19:59:53.040Z,15.38
2022-09-07T20:03:30.303Z,15.33
2022-09-07T20:07:02.071Z,15.27
2022-09-07T20:10:29.421Z,15.21
2022-09-07T20:13:58.557Z,15.15
2022-09-07T20:17:34.962Z,15.05
2022-09-07T20:21:13.755Z,14.96
2022-09-07T20:24:48.348Z,14.90
2022-09-07T20:28:36.108Z,14.86
2022-09-07T20:32:05.494Z,14.82
2022-09-07T20:35:36.407Z,14.77
2022-09-07T20:39:04.747Z,14.71
2022-09-07T20:42:38.161Z,14.65
2022-09-07T20:46:10.599Z,14.61
2022-09-07T20:49:38.239Z,14.55
2022-09-07T20:53:08.435Z,14.50
2022-09-07T20:56:45.927Z,14.45
2022-09-07T21:00:16.878Z,14.41
2022-09-07T21:03:49.372Z,14.34
2022-09-07T21:07:21.921Z,14.27
2022-09-07T21:10:51.498Z,14.20
2022-09-07T21:14:22.578Z,14.13
2022-09-07T21:17:49.631Z,14.08
2022-09-07T21:21:19.819Z,14.02
2022-09-07T21:24:49.575Z,13.95
2022-09-07T21:28:16.300Z,13.91
2022-09-07T21:31:43.744Z,13.86
2022-09-07T21:35:12.861Z,13.83
2022-09-07T21:38:41.523Z,13.80
2022-09-07T21:42:10.666Z,13.78
2022-09-07T21:45:45.664Z,13.77
2022-09-07T21:49:12.883Z,13.76
2022-09-07T21:52:41.654Z,13.75
2022-09-07T21:56:12.932Z,13.75
2022-09-07T21:59:42.628Z,13.73
2022-09-07T22:03:10.273Z,13.76
2022-09-07T22:06:38.004Z,13.76
2022-09-07T22:10:05.620Z,13.76
2022-09-07T22:13:33.517Z,13.76
2022-09-07T22:17:00.992Z,13.75
2022-09-07T22:20:31.493Z,13.76
2022-09-07T22:24:02.014Z,13.75
2022-09-07T22:27:28.760Z,13.73
2022-09-07T22:31:09.040Z,13.72
2022-09-07T22:34:37.643Z,13.71
2022-09-07T22:38:04.582Z,13.71
2022-09-07T22:41:33.122Z,13.70
2022-09-07T22:45:00.249Z,13.69
2022-09-07T22:48:30.721Z,13.68
2022-09-07T22:51:58.210Z,13.68
2022-09-07T22:55:25.494Z,13.69
2022-09-07T22:58:56.076Z,13.68
2022-09-07T23:02:23.072Z,13.68
2022-09-07T23:05:50.491Z,13.68
2022-09-07T23:09:19.178Z,13.69
2022-09-07T23:12:46.146Z,13.69
2022-09-07T23:16:13.655Z,13.71
2022-09-07T23:19:40.346Z,13.73
2022-09-07T23:23:07.950Z,13.76
2022-09-07T23:26:35.684Z,13.78
2022-09-07T23:30:02.878Z,13.81
2022-09-07T23:33:30.696Z,13.82
2022-09-07T23:36:58.085Z,13.84
2022-09-07T23:40:24.880Z,13.87
2022-09-07T23:43:52.537Z,13.89
2022-09-07T23:47:19.759Z,13.90
2022-09-07T23:50:48.177Z,13.91
2022-09-07T23:54:18.978Z,13.91
2022-09-07T23:57:45.868Z,13.91
